Time;durP1;ratioP1;P1;durP2;ratioP2;P2;SDS_P1;SDS_P2;PMS_P1;PMS_P2;Temp;Humidity;BMP_temperature;BMP_pressure;BME280_temperature;BME280_humidity;BME280_pressure;Samples;Min_cycle;Max_cycle;Signal;HPM_P1;HPM_P2
2022/07/01 00:02:59;;;;;;;3.65;2.00;;;17.80;70.90;;;;;;9179000;19;20011;-68
2022/07/01 00:06:06;;;;;;;7.65;2.60;;;17.80;70.90;;;;;;9177567;19;20106;-68
2022/07/01 00:09:12;;;;;;;6.78;2.58;;;17.80;71.10;;;;;;9177966;19;20527;-69
2022/07/01 00:12:18;;;;;;;3.80;2.58;;;17.70;71.00;;;;;;9178027;19;20007;-68
2022/07/01 00:15:23;;;;;;;6.75;2.78;;;17.70;71.10;;;;;;9183794;19;20764;-68
2022/07/01 00:18:28;;;;;;;4.18;3.03;;;17.70;71.10;;;;;;9180898;19;20023;-68
2022/07/01 00:21:36;;;;;;;7.50;3.80;;;17.70;71.20;;;;;;9181568;19;20029;-68
2022/07/01 00:24:42;;;;;;;5.65;4.53;;;17.70;71.40;;;;;;9182513;19;20014;-68
2022/07/01 00:27:47;;;;;;;8.65;4.80;;;17.60;71.20;;;;;;9182257;19;20017;-68
2022/07/01 00:30:52;;;;;;;6.95;5.10;;;17.60;71.30;;;;;;9181632;19;20620;-68
2022/07/01 00:33:57;;;;;;;8.25;5.38;;;17.50;71.30;;;;;;9182380;19;20383;-68
2022/07/01 00:37:05;;;;;;;7.75;5.22;;;17.50;72.10;;;;;;9181646;19;20011;-68
2022/07/01 00:40:11;;;;;;;8.40;6.25;;;17.50;71.70;;;;;;9179394;19;20010;-68
2022/07/01 00:43:17;;;;;;;7.72;5.90;;;17.50;71.70;;;;;;9180831;19;20018;-67
2022/07/01 00:46:36;;;;;;;8.10;6.60;;;17.50;71.70;;;;;;9178348;19;20367;-68
2022/07/01 00:49:42;;;;;;;6.88;5.38;;;17.50;71.70;;;;;;9179384;19;20084;-68
2022/07/01 00:52:50;;;;;;;8.55;6.75;;;17.50;71.80;;;;;;9179465;19;20034;-68
2022/07/01 00:55:55;;;;;;;10.18;7.43;;;17.50;72.00;;;;;;9179425;19;20014;-67
2022/07/01 00:59:00;;;;;;;12.07;7.28;;;17.50;71.90;;;;;;9179612;19;20488;-67
2022/07/01 01:02:07;;;;;;;10.07;7.10;;;17.50;71.90;;;;;;9178175;19;20033;-68
2022/07/01 01:05:12;;;;;;;10.25;7.10;;;17.50;72.10;;;;;;9177988;19;20100;-68
2022/07/01 01:08:20;;;;;;;10.40;7.53;;;17.50;72.10;;;;;;9178935;19;20026;-68
2022/07/01 01:11:25;;;;;;;14.45;7.80;;;17.50;72.20;;;;;;9182442;19;20022;-68
2022/07/01 01:14:30;;;;;;;9.02;7.03;;;17.50;72.20;;;;;;9179346;19;20067;-68
2022/07/01 01:17:36;;;;;;;7.88;7.00;;;17.50;72.30;;;;;;9176752;19;20352;-67
2022/07/01 01:20:43;;;;;;;10.80;7.53;;;17.50;72.20;;;;;;9181810;19;20023;-67
2022/07/01 01:23:48;;;;;;;9.05;6.85;;;17.50;72.30;;;;;;9180602;19;20090;-68
2022/07/01 01:26:53;;;;;;;11.07;7.75;;;17.50;72.30;;;;;;9176511;19;20022;-68
2022/07/01 01:29:58;;;;;;;8.63;6.55;;;17.50;72.30;;;;;;9181201;19;20018;-67
2022/07/01 01:33:04;;;;;;;10.73;7.88;;;17.50;72.40;;;;;;9180205;19;20442;-68
2022/07/01 01:36:11;;;;;;;9.85;7.50;;;17.50;72.50;;;;;;9176188;19;20038;-69
2022/07/01 01:39:16;;;;;;;10.57;6.95;;;17.50;72.60;;;;;;9179887;19;20022;-68
2022/07/01 01:42:21;;;;;;;11.30;7.82;;;17.50;72.60;;;;;;9179208;19;20025;-67
2022/07/01 01:45:26;;;;;;;9.15;6.43;;;17.50;72.60;;;;;;9177472;19;20421;-68
2022/07/01 01:48:32;;;;;;;11.10;7.38;;;17.50;72.60;;;;;;9178072;19;20373;-68
2022/07/01 01:51:40;;;;;;;9.57;7.10;;;17.50;72.60;;;;;;9178240;19;20110;-68
2022/07/01 01:54:46;;;;;;;12.88;7.25;;;17.50;72.80;;;;;;9178670;19;20010;-67
2022/07/01 01:57:51;;;;;;;9.70;7.18;;;17.50;72.70;;;;;;9179363;19;20026;-68
2022/07/01 02:00:56;;;;;;;11.88;8.15;;;17.50;72.80;;;;;;9177793;19;20114;-67
2022/07/01 02:04:01;;;;;;;8.98;7.28;;;17.40;72.80;;;;;;9176305;19;20451;-67
2022/07/01 02:07:09;;;;;;;12.57;7.82;;;17.40;72.80;;;;;;9177321;19;20014;-68
2022/07/01 02:10:14;;;;;;;13.68;8.00;;;17.40;73.00;;;;;;9178842;19;20029;-67
2022/07/01 02:13:19;;;;;;;10.35;7.70;;;17.40;72.80;;;;;;9178079;19;20014;-67
2022/07/01 02:16:24;;;;;;;12.27;8.25;;;17.40;72.80;;;;;;9174801;19;20021;-67
2022/07/01 02:19:29;;;;;;;11.88;8.75;;;17.30;72.80;;;;;;9178188;19;20376;-67
2022/07/01 02:22:37;;;;;;;20.55;10.73;;;17.30;72.80;;;;;;9176558;19;20025;-67
2022/07/01 02:25:42;;;;;;;15.90;11.32;;;17.30;72.90;;;;;;9175493;19;20019;-68
2022/07/01 02:28:47;;;;;;;21.67;13.30;;;17.30;72.90;;;;;;9175567;19;20037;-67
2022/07/01 02:31:52;;;;;;;20.92;14.18;;;17.20;72.80;;;;;;9173678;19;20025;-67
2022/07/01 02:34:56;;;;;;;23.23;14.15;;;17.20;72.80;;;;;;9177286;19;20011;-67
2022/07/01 02:38:04;;;;;;;22.88;14.45;;;17.20;72.90;;;;;;9174891;19;20041;-67
2022/07/01 02:41:09;;;;;;;20.65;13.65;;;17.20;73.00;;;;;;9176566;19;20023;-69
2022/07/01 02:44:15;;;;;;;23.08;14.93;;;17.10;72.90;;;;;;9177858;19;20464;-67
2022/07/01 02:47:20;;;;;;;21.00;14.52;;;17.10;72.90;;;;;;9175227;19;20029;-66
2022/07/01 02:50:25;;;;;;;20.00;14.57;;;17.10;73.10;;;;;;9176713;19;20014;-66
2022/07/01 02:53:37;;;;;;;23.08;14.73;;;17.10;73.10;;;;;;9174737;19;20020;-69
2022/07/01 02:56:42;;;;;;;24.42;14.98;;;17.00;73.30;;;;;;9174511;19;20090;-67
2022/07/01 02:59:47;;;;;;;18.15;13.95;;;17.00;73.20;;;;;;9175251;19;20026;-66
2022/07/01 03:02:52;;;;;;;22.33;15.65;;;17.00;73.30;;;;;;9175746;19;20022;-66
2022/07/01 03:05:57;;;;;;;24.50;15.32;;;17.00;73.30;;;;;;9174702;19;20011;-66
2022/07/01 03:09:05;;;;;;;21.95;14.98;;;17.00;73.30;;;;;;9174002;19;20018;-67
2022/07/01 03:15:31;;;;;;;25.15;15.32;;;17.00;73.40;;;;;;9173668;19;20098;-68
2022/07/01 03:18:36;;;;;;;22.70;15.20;;;16.90;73.40;;;;;;9169959;19;20019;-68
2022/07/01 03:21:41;;;;;;;26.42;15.32;;;16.90;73.40;;;;;;9173906;19;20018;-67
2022/07/01 03:24:49;;;;;;;28.33;17.23;;;16.90;73.40;;;;;;9173954;19;20026;-66
2022/07/01 03:27:54;;;;;;;29.15;18.35;;;16.90;73.60;;;;;;9171624;19;20360;-67
2022/07/01 03:30:59;;;;;;;30.70;19.05;;;16.90;73.60;;;;;;9174763;19;20022;-66
2022/07/01 03:34:04;;;;;;;30.95;18.38;;;16.90;73.70;;;;;;9175177;19;20026;-67
2022/07/01 03:37:11;;;;;;;26.00;18.35;;;16.90;73.60;;;;;;9173524;19;20019;-67
2022/07/01 03:40:18;;;;;;;31.98;19.98;;;16.90;73.70;;;;;;9175751;19;20022;-67
2022/07/01 03:43:24;;;;;;;29.92;20.52;;;16.80;73.70;;;;;;9174597;19;20011;-67
2022/07/01 03:46:31;;;;;;;28.48;19.02;;;16.80;73.60;;;;;;9174359;19;20029;-67
2022/07/01 03:49:36;;;;;;;31.67;20.10;;;16.80;73.70;;;;;;9181436;19;20011;-67
2022/07/01 03:52:42;;;;;;;32.83;20.52;;;16.80;73.70;;;;;;9185687;19;20103;-67
2022/07/01 03:55:47;;;;;;;32.42;19.45;;;16.80;73.70;;;;;;9182503;19;20010;-68
2022/07/01 03:58:52;;;;;;;29.88;18.75;;;16.70;73.80;;;;;;9182880;19;20026;-68
2022/07/01 04:01:57;;;;;;;30.90;20.27;;;16.80;73.90;;;;;;9184600;19;20030;-68
2022/07/01 04:05:02;;;;;;;33.05;20.25;;;16.70;73.90;;;;;;9181518;19;20388;-66
2022/07/01 04:08:11;;;;;;;28.70;19.10;;;16.70;73.90;;;;;;9181031;19;20026;-66
2022/07/01 04:11:19;;;;;;;32.42;20.42;;;16.70;73.90;;;;;;9181805;19;20036;-67
2022/07/01 04:14:24;;;;;;;32.30;20.35;;;16.70;74.10;;;;;;9184530;19;20034;-67
2022/07/01 04:17:29;;;;;;;30.70;19.42;;;16.70;74.10;;;;;;9177956;19;20017;-67
2022/07/01 04:20:34;;;;;;;32.95;21.30;;;16.70;74.20;;;;;;9183405;19;20061;-67
2022/07/01 04:23:36;;;;;;;30.08;20.02;;;16.70;74.30;;;;;;9180780;19;20476;-68
2022/07/01 04:26:45;;;;;;;30.77;19.67;;;16.70;74.30;;;;;;9183043;19;20022;-67
2022/07/01 04:29:50;;;;;;;30.05;19.55;;;16.70;74.40;;;;;;9183070;19;20472;-67
2022/07/01 04:32:55;;;;;;;31.83;21.38;;;16.70;74.40;;;;;;9181531;19;20030;-67
2022/07/01 04:36:00;;;;;;;33.78;21.35;;;16.70;74.50;;;;;;9180041;19;20082;-68
2022/07/01 04:39:06;;;;;;;34.25;21.23;;;16.70;74.50;;;;;;9182711;19;20356;-67
2022/07/01 04:42:15;;;;;;;29.70;20.60;;;16.70;75.30;;;;;;9180746;19;20018;-67
2022/07/01 04:45:20;;;;;;;32.08;22.33;;;16.60;74.70;;;;;;9180272;19;20019;-67
2022/07/01 04:48:25;;;;;;;35.63;21.52;;;16.60;74.70;;;;;;9176818;19;20026;-67
2022/07/01 04:51:30;;;;;;;36.33;22.70;;;16.60;74.70;;;;;;9179974;19;20022;-67
2022/07/01 04:54:36;;;;;;;39.17;25.02;;;16.60;74.80;;;;;;9179939;19;20022;-67
2022/07/01 04:57:44;;;;;;;40.28;24.55;;;16.70;74.80;;;;;;9181165;19;20022;-67
2022/07/01 05:00:50;;;;;;;42.08;25.70;;;16.70;75.00;;;;;;9178078;19;20029;-68
2022/07/01 05:03:55;;;;;;;39.17;26.38;;;16.70;75.00;;;;;;9178714;19;20503;-67
2022/07/01 05:07:00;;;;;;;42.45;26.58;;;16.70;75.00;;;;;;9181014;19;20018;-67
2022/07/01 05:10:06;;;;;;;40.47;25.83;;;16.70;75.00;;;;;;9181113;19;20022;-67
2022/07/01 05:13:13;;;;;;;39.28;25.95;;;16.70;75.00;;;;;;9182572;19;20409;-66
2022/07/01 05:16:19;;;;;;;44.25;27.77;;;16.70;75.10;;;;;;9177380;19;20023;-67
2022/07/01 05:22:42;;;;;;;48.75;28.42;;;16.70;75.10;;;;;;9181527;19;20333;-66
2022/07/01 05:25:47;;;;;;;49.15;29.35;;;16.70;75.10;;;;;;9179198;19;20015;-66
2022/07/01 05:28:55;;;;;;;45.28;26.80;;;16.70;75.10;;;;;;9176912;19;20017;-66
2022/07/01 05:32:00;;;;;;;44.42;27.63;;;16.70;75.30;;;;;;9182031;19;20025;-66
2022/07/01 05:35:06;;;;;;;44.80;28.30;;;16.70;75.10;;;;;;9182606;19;20006;-67
2022/07/01 05:38:11;;;;;;;44.78;27.77;;;16.70;75.10;;;;;;9185318;19;20490;-66
2022/07/01 05:41:17;;;;;;;41.22;26.33;;;16.70;75.20;;;;;;9185636;19;20011;-66
2022/07/01 05:44:24;;;;;;;42.47;25.40;;;16.70;75.20;;;;;;9185191;19;20025;-66
2022/07/01 05:47:29;;;;;;;42.97;26.42;;;16.70;75.30;;;;;;9184386;19;20011;-66
2022/07/01 05:50:34;;;;;;;39.30;25.63;;;16.70;75.20;;;;;;9180692;19;20380;-66
2022/07/01 05:53:39;;;;;;;43.97;26.55;;;16.70;75.20;;;;;;9184057;19;20025;-67
2022/07/01 05:56:44;;;;;;;46.25;25.63;;;16.70;75.20;;;;;;9185043;19;20017;-67
2022/07/01 05:59:52;;;;;;;41.20;25.58;;;16.70;75.20;;;;;;9182171;19;20015;-67
2022/07/01 06:02:57;;;;;;;38.00;24.60;;;16.70;75.30;;;;;;9178108;19;20106;-67
2022/07/01 06:06:05;;;;;;;45.65;25.92;;;16.70;75.20;;;;;;9182155;19;20006;-67
2022/07/01 06:09:11;;;;;;;34.80;23.83;;;16.70;75.20;;;;;;9181096;19;20021;-68
2022/07/01 06:12:16;;;;;;;37.10;24.75;;;16.70;75.10;;;;;;9180352;19;20033;-68
2022/07/01 06:15:23;;;;;;;41.63;25.67;;;16.70;75.20;;;;;;9176362;19;20018;-67
2022/07/01 06:18:28;;;;;;;38.70;24.55;;;16.70;75.30;;;;;;9172811;19;20483;-68
2022/07/01 06:21:34;;;;;;;36.88;23.38;;;16.80;75.20;;;;;;9176193;19;20053;-67
2022/07/01 06:24:39;;;;;;;39.40;24.30;;;16.80;75.20;;;;;;9176461;19;20057;-67
2022/07/01 06:27:46;;;;;;;38.17;24.15;;;16.70;75.10;;;;;;9175928;19;20400;-67
2022/07/01 06:30:55;;;;;;;38.25;24.77;;;16.80;75.20;;;;;;9175986;19;20647;-66
2022/07/01 06:34:00;;;;;;;42.78;24.15;;;16.80;75.30;;;;;;9177510;19;20016;-67
2022/07/01 06:37:06;;;;;;;41.20;24.45;;;16.80;75.20;;;;;;9182437;19;20022;-67
2022/07/01 06:40:11;;;;;;;39.05;23.45;;;16.80;75.20;;;;;;9181162;19;20029;-67
2022/07/01 06:43:16;;;;;;;34.25;22.70;;;16.80;75.20;;;;;;9183455;19;20015;-66
2022/07/01 06:46:24;;;;;;;36.70;21.38;;;16.80;75.20;;;;;;9180367;19;20018;-67
2022/07/01 06:49:32;;;;;;;34.88;21.77;;;16.80;75.20;;;;;;9181374;19;20094;-66
2022/07/01 06:52:39;;;;;;;34.88;21.17;;;16.80;75.10;;;;;;9180806;19;20086;-66
2022/07/01 06:55:44;;;;;;;36.08;22.38;;;16.80;75.00;;;;;;9181667;19;20015;-68
2022/07/01 06:58:55;;;;;;;35.22;20.20;;;16.80;75.00;;;;;;9182000;19;20021;-69
2022/07/01 07:02:05;;;;;;;35.10;21.00;;;16.80;75.00;;;;;;9181225;19;20117;-66
2022/07/01 07:05:13;;;;;;;37.15;21.63;;;16.90;75.20;;;;;;9179758;19;20030;-68
2022/07/01 07:08:18;;;;;;;35.80;19.17;;;16.80;75.10;;;;;;9179413;19;20025;-68
2022/07/01 07:11:23;;;;;;;33.40;19.50;;;16.90;75.10;;;;;;9181384;19;20101;-67
2022/07/01 07:14:28;;;;;;;32.33;20.48;;;16.90;75.10;;;;;;9181497;19;20019;-68
2022/07/01 07:17:35;;;;;;;35.58;20.45;;;16.90;75.10;;;;;;9176530;19;20018;-69
2022/07/01 07:20:41;;;;;;;31.42;19.02;;;17.00;75.30;;;;;;9180229;19;20022;-68
2022/07/01 07:23:46;;;;;;;32.42;19.58;;;17.00;75.20;;;;;;9178316;19;20038;-67
2022/07/01 07:26:51;;;;;;;31.67;18.83;;;17.10;75.10;;;;;;9179401;19;20471;-69
2022/07/01 07:29:56;;;;;;;31.55;18.02;;;17.10;75.10;;;;;;9182007;19;20014;-68
2022/07/01 07:33:03;;;;;;;33.35;18.40;;;17.20;75.10;;;;;;9178522;19;20352;-67
2022/07/01 07:36:08;;;;;;;28.23;17.27;;;17.20;75.10;;;;;;9172263;19;20357;-67
2022/07/01 07:39:13;;;;;;;30.55;17.92;;;17.30;75.00;;;;;;9174297;19;20011;-67
2022/07/01 07:42:19;;;;;;;31.55;16.42;;;17.30;75.00;;;;;;9177390;19;20018;-67
2022/07/01 07:45:24;;;;;;;28.13;16.92;;;17.40;74.90;;;;;;9177523;19;20391;-66
2022/07/01 07:48:32;;;;;;;26.80;16.85;;;17.50;74.90;;;;;;9178020;19;20015;-66
2022/07/01 07:51:37;;;;;;;27.77;16.05;;;17.60;75.00;;;;;;9180172;19;20559;-67
2022/07/01 07:54:42;;;;;;;28.50;15.68;;;17.70;75.00;;;;;;9180638;19;20015;-68
2022/07/01 07:57:47;;;;;;;29.85;15.55;;;17.80;75.00;;;;;;9178902;19;20015;-68
2022/07/01 08:00:52;;;;;;;31.85;14.45;;;17.90;74.90;;;;;;9178791;19;20364;-67
2022/07/01 08:04:18;;;;;;;23.20;14.18;;;18.00;74.60;;;;;;9177756;19;20015;-66
2022/07/01 08:07:23;;;;;;;29.27;15.07;;;18.10;74.50;;;;;;9177098;19;20038;-70
2022/07/01 08:10:28;;;;;;;26.25;15.07;;;18.20;74.90;;;;;;9177420;19;20114;-68
2022/07/01 08:13:33;;;;;;;22.38;14.27;;;18.30;74.20;;;;;;9178221;19;20034;-67
2022/07/01 08:16:38;;;;;;;20.35;12.60;;;18.40;74.10;;;;;;9175793;19;20014;-67
2022/07/01 08:19:46;;;;;;;22.85;14.05;;;18.50;74.00;;;;;;9180498;19;20098;-66
2022/07/01 08:22:51;;;;;;;22.15;12.32;;;18.60;74.00;;;;;;9178596;19;20111;-66
2022/07/01 08:25:56;;;;;;;25.95;12.90;;;18.60;74.00;;;;;;9178999;19;20018;-67
2022/07/01 08:29:01;;;;;;;23.23;11.82;;;18.70;73.90;;;;;;9177169;19;20029;-64
2022/07/01 08:32:07;;;;;;;24.80;11.68;;;18.80;73.90;;;;;;9177166;19;20651;-64
2022/07/01 08:35:15;;;;;;;19.08;10.65;;;18.90;73.80;;;;;;9178861;19;20022;-68
2022/07/01 08:38:20;;;;;;;19.00;10.77;;;19.00;73.70;;;;;;9183732;19;20375;-64
2022/07/01 08:41:31;;;;;;;21.40;10.50;;;19.10;73.50;;;;;;9184949;19;20026;-65
2022/07/01 08:44:37;;;;;;;17.17;9.80;;;19.20;73.30;;;;;;9185727;19;20479;-66
2022/07/01 08:47:52;;;;;;;18.98;10.15;;;19.40;73.20;;;;;;9187698;19;20019;-64
2022/07/01 08:51:03;;;;;;;20.65;10.45;;;19.50;73.00;;;;;;9183987;19;20019;-64
2022/07/01 08:54:09;;;;;;;21.70;10.05;;;19.60;72.80;;;;;;9188355;19;20025;-64
2022/07/01 08:57:14;;;;;;;16.52;8.48;;;19.70;72.60;;;;;;9184884;19;20015;-65
2022/07/01 09:00:20;;;;;;;23.02;10.20;;;19.90;72.40;;;;;;9186711;19;20640;-65
2022/07/01 09:03:25;;;;;;;16.23;9.48;;;19.90;72.20;;;;;;9186296;19;20015;-65
2022/07/01 09:06:33;;;;;;;13.80;8.35;;;20.10;72.00;;;;;;9184210;19;20015;-65
2022/07/01 09:09:42;;;;;;;13.82;8.13;;;20.20;71.80;;;;;;9184977;19;20490;-65
2022/07/01 09:12:48;;;;;;;18.42;8.27;;;20.20;71.50;;;;;;9185654;19;20510;-63
2022/07/01 09:15:53;;;;;;;15.65;9.15;;;20.30;71.40;;;;;;9185762;19;20028;-64
2022/07/01 09:19:02;;;;;;;13.98;9.10;;;20.30;71.20;;;;;;9182692;19;20352;-63
2022/07/01 09:22:10;;;;;;;14.90;9.40;;;20.40;71.10;;;;;;9186449;19;20010;-66
2022/07/01 09:25:16;;;;;;;17.33;7.55;;;20.40;71.00;;;;;;9184463;19;20021;-65
2022/07/01 09:28:23;;;;;;;11.27;6.25;;;20.40;70.90;;;;;;9187492;19;20013;-65
2022/07/01 09:31:35;;;;;;;15.13;7.18;;;20.40;70.80;;;;;;9181628;19;20070;-65
2022/07/01 09:34:44;;;;;;;12.50;7.18;;;20.50;70.80;;;;;;9184647;19;20011;-64
2022/07/01 09:37:57;;;;;;;13.90;7.43;;;20.60;70.60;;;;;;9184286;19;20026;-66
2022/07/01 09:41:07;;;;;;;14.02;7.47;;;20.70;70.30;;;;;;9183899;19;20025;-65
2022/07/01 09:44:12;;;;;;;11.95;6.70;;;20.90;70.30;;;;;;9184372;19;20015;-65
2022/07/01 09:47:17;;;;;;;14.30;7.22;;;20.90;70.10;;;;;;9184746;19;20021;-65
2022/07/01 09:50:22;;;;;;;21.10;7.50;;;21.10;70.10;;;;;;9181581;19;20011;-66
2022/07/01 09:53:30;;;;;;;16.95;7.57;;;21.20;69.80;;;;;;9185717;19;20438;-65
2022/07/01 09:56:35;;;;;;;17.15;7.10;;;21.40;69.40;;;;;;9183142;19;20014;-65
2022/07/01 09:59:40;;;;;;;15.27;7.20;;;21.40;69.20;;;;;;9183212;19;20024;-65
2022/07/01 10:02:46;;;;;;;17.58;7.68;;;21.50;69.00;;;;;;9179630;19;20023;-65
2022/07/01 10:05:54;;;;;;;10.23;6.63;;;21.60;68.80;;;;;;9181401;19;20017;-66
2022/07/01 10:09:23;;;;;;;14.10;6.88;;;21.70;68.70;;;;;;9182831;19;20014;-64
2022/07/01 10:12:38;;;;;;;11.25;6.18;;;21.70;68.10;;;;;;9184241;19;20021;-65
2022/07/01 10:15:45;;;;;;;11.65;6.65;;;21.80;68.10;;;;;;9185061;19;20415;-64
2022/07/01 10:18:50;;;;;;;13.55;6.22;;;21.80;68.00;;;;;;9181046;19;20590;-65
2022/07/01 10:21:56;;;;;;;12.48;6.10;;;21.90;67.90;;;;;;9182798;19;20548;-65
2022/07/01 10:25:37;;;;;;;14.30;5.88;;;21.90;67.60;;;;;;9181970;19;20100;-65
2022/07/01 10:28:47;;;;;;;12.50;6.03;;;22.00;67.20;;;;;;9184030;19;20055;-65
2022/07/01 10:31:52;;;;;;;10.13;5.50;;;22.00;67.10;;;;;;9179959;19;20035;-65
2022/07/01 10:35:06;;;;;;;10.32;5.80;;;22.00;67.20;;;;;;9183326;19;20018;-65
2022/07/01 10:38:14;;;;;;;9.75;5.28;;;22.00;66.90;;;;;;9181063;19;20018;-66
2022/07/01 10:41:30;;;;;;;11.80;5.55;;;22.10;66.90;;;;;;9183348;19;20414;-67
2022/07/01 10:44:37;;;;;;;10.13;5.32;;;22.20;66.70;;;;;;9181741;19;20018;-66
2022/07/01 10:47:45;;;;;;;10.23;5.40;;;22.30;66.50;;;;;;9181863;19;20487;-65
2022/07/01 10:50:50;;;;;;;8.68;5.05;;;22.40;66.30;;;;;;9179965;19;20471;-66
2022/07/01 10:53:56;;;;;;;11.68;5.35;;;22.50;65.90;;;;;;9180644;19;20505;-65
2022/07/01 10:57:22;;;;;;;9.20;5.50;;;22.60;65.60;;;;;;9180459;19;20049;-66
2022/07/01 11:00:38;;;;;;;8.88;4.80;;;22.70;65.20;;;;;;9180523;19;20010;-67
2022/07/01 11:03:44;;;;;;;14.73;5.25;;;22.80;65.20;;;;;;9179778;19;20010;-66
2022/07/01 11:06:49;;;;;;;8.82;5.65;;;23.00;65.30;;;;;;9181945;19;20386;-67
2022/07/01 11:09:54;;;;;;;8.38;5.30;;;23.10;65.00;;;;;;9179192;19;20426;-66
2022/07/01 11:13:06;;;;;;;11.30;6.13;;;23.20;64.70;;;;;;9181921;19;20124;-65
2022/07/01 11:16:12;;;;;;;10.23;6.13;;;23.30;64.20;;;;;;9177054;19;20130;-65
2022/07/01 11:19:20;;;;;;;15.45;6.22;;;23.40;64.20;;;;;;9181922;19;20371;-67
2022/07/01 11:22:26;;;;;;;10.00;5.90;;;23.50;63.80;;;;;;9179816;19;20018;-67
2022/07/01 11:25:33;;;;;;;10.88;5.35;;;23.60;63.60;;;;;;9180542;19;20029;-67
2022/07/01 11:28:45;;;;;;;7.53;4.18;;;23.60;63.30;;;;;;9179957;19;20014;-66
2022/07/01 11:31:56;;;;;;;7.03;4.43;;;23.70;63.00;;;;;;9179800;19;20015;-66
2022/07/01 11:39:21;;;;;;;6.75;3.50;;;23.60;62.90;;;;;;9179141;19;20079;-66
2022/07/01 11:41:55;;;;;;;5.43;2.58;;;23.70;62.70;;;;;;9179112;19;20014;-66
2022/07/01 11:45:11;;;;;;;7.28;2.50;;;23.70;62.50;;;;;;9178753;19;20344;-65
2022/07/01 11:48:31;;;;;;;5.55;2.50;;;23.70;62.20;;;;;;9178919;19;20956;-66
2022/07/01 11:51:36;;;;;;;9.57;2.80;;;23.80;62.00;;;;;;9177726;19;20044;-66
2022/07/01 11:54:47;;;;;;;6.75;2.90;;;23.90;62.10;;;;;;9176271;19;20487;-66
2022/07/01 11:57:53;;;;;;;10.57;2.85;;;23.90;61.70;;;;;;9180782;19;20017;-65
2022/07/01 12:01:01;;;;;;;4.63;2.35;;;23.90;61.70;;;;;;9180016;19;20027;-65
2022/07/01 12:04:08;;;;;;;7.28;1.98;;;24.00;61.30;;;;;;9179236;19;20022;-66
2022/07/01 12:07:15;;;;;;;11.73;2.45;;;23.90;61.10;;;;;;9180216;19;20400;-66
2022/07/01 12:10:20;;;;;;;4.43;1.75;;;23.90;61.00;;;;;;9180518;19;20038;-65
2022/07/01 12:13:26;;;;;;;4.57;1.13;;;23.90;61.00;;;;;;9188120;19;20380;-66
2022/07/01 12:16:40;;;;;;;2.90;1.05;;;24.00;60.80;;;;;;9185590;19;20479;-66
2022/07/01 12:19:48;;;;;;;6.47;1.60;;;24.00;60.30;;;;;;9186801;19;20379;-65
2022/07/01 12:22:53;;;;;;;4.85;1.60;;;24.00;60.60;;;;;;9187386;19;20011;-65
2022/07/01 12:25:58;;;;;;;5.20;1.30;;;24.10;60.50;;;;;;9187753;19;20015;-65
2022/07/01 12:29:03;;;;;;;6.80;2.05;;;24.10;60.40;;;;;;9186675;19;20011;-64
2022/07/01 12:32:13;;;;;;;8.25;2.80;;;24.20;60.10;;;;;;9185158;19;20015;-66
2022/07/01 12:35:38;;;;;;;4.47;2.13;;;24.20;60.00;;;;;;9188146;19;20014;-66
2022/07/01 12:38:44;;;;;;;3.95;1.65;;;24.30;60.00;;;;;;9186313;19;20015;-67
2022/07/01 12:41:53;;;;;;;9.07;1.90;;;24.30;59.90;;;;;;9186814;19;20014;-66
2022/07/01 12:45:00;;;;;;;4.03;1.27;;;24.40;59.60;;;;;;9187664;19;20014;-66
2022/07/01 12:48:08;;;;;;;5.90;1.33;;;24.50;59.60;;;;;;9186056;19;20328;-67
2022/07/01 12:51:18;;;;;;;5.50;1.10;;;24.60;59.20;;;;;;9183195;19;20019;-66
2022/07/01 12:54:33;;;;;;;1.92;1.15;;;24.70;59.00;;;;;;9186769;19;20044;-66
2022/07/01 12:57:39;;;;;;;1.90;1.05;;;24.80;58.90;;;;;;9185438;19;20022;-65
2022/07/01 13:00:47;;;;;;;3.33;0.93;;;24.90;58.90;;;;;;9185247;19;20472;-67
2022/07/01 13:03:54;;;;;;;1.60;0.70;;;24.90;58.30;;;;;;9184064;19;20056;-66
2022/07/01 13:07:03;;;;;;;4.30;0.93;;;25.00;58.00;;;;;;9187001;19;20022;-66
2022/07/01 13:10:10;;;;;;;4.55;0.75;;;25.00;57.90;;;;;;9186571;19;20006;-66
2022/07/01 13:13:16;;;;;;;4.25;0.80;;;25.00;57.50;;;;;;9183788;19;20919;-66
2022/07/01 13:16:21;;;;;;;4.97;1.10;;;24.90;57.30;;;;;;9180598;19;20030;-67
2022/07/01 13:19:30;;;;;;;6.78;1.42;;;24.90;57.30;;;;;;9187188;19;20013;-71
2022/07/01 13:22:35;;;;;;;4.97;0.60;;;24.80;57.00;;;;;;9179248;19;21476;-68
2022/07/01 13:25:40;;;;;;;3.50;0.82;;;24.80;57.10;;;;;;9178195;19;20022;-68
2022/07/01 13:28:45;;;;;;;1.75;0.90;;;24.80;57.10;;;;;;9179435;19;20006;-67
2022/07/01 13:31:54;;;;;;;8.35;1.00;;;24.80;57.00;;;;;;9176877;19;20081;-68
2022/07/01 13:35:02;;;;;;;2.83;0.98;;;24.80;56.90;;;;;;9176989;19;20142;-68
2022/07/01 13:38:08;;;;;;;8.32;0.70;;;24.90;56.90;;;;;;9179958;19;20025;-69
2022/07/01 13:41:15;;;;;;;1.55;0.60;;;24.90;56.80;;;;;;9180631;19;20048;-68
2022/07/01 13:44:20;;;;;;;0.98;0.60;;;25.00;56.70;;;;;;9178884;19;20019;-71
2022/07/01 13:47:26;;;;;;;3.10;0.52;;;25.10;56.50;;;;;;9177055;19;20027;-69
2022/07/01 13:50:34;;;;;;;1.33;0.57;;;25.10;56.20;;;;;;9178835;19;20017;-68
2022/07/01 13:53:39;;;;;;;3.55;1.17;;;25.20;55.90;;;;;;9177132;19;20018;-70
2022/07/01 13:56:45;;;;;;;4.10;1.08;;;25.20;55.90;;;;;;9178169;19;20033;-68
2022/07/01 13:59:50;;;;;;;3.00;0.70;;;25.30;55.80;;;;;;9177876;19;20022;-68
2022/07/01 14:02:55;;;;;;;6.20;1.27;;;25.30;55.60;;;;;;9179989;19;20047;-70
2022/07/01 14:06:07;;;;;;;3.70;1.85;;;25.30;55.50;;;;;;9177448;19;20376;-69
2022/07/01 14:09:21;;;;;;;1.83;0.50;;;25.30;55.20;;;;;;9177837;19;20979;-68
2022/07/01 14:12:27;;;;;;;1.95;1.02;;;25.40;55.10;;;;;;9176300;19;20034;-69
2022/07/01 14:15:32;;;;;;;3.05;0.60;;;25.40;54.90;;;;;;9177635;19;20048;-69
2022/07/01 14:18:38;;;;;;;1.77;0.70;;;25.40;54.70;;;;;;9174929;19;20021;-71
2022/07/01 14:21:53;;;;;;;3.22;0.73;;;25.30;54.40;;;;;;9178268;19;20021;-67
2022/07/01 14:24:58;;;;;;;5.88;0.90;;;25.30;54.20;;;;;;9178293;19;20773;-68
2022/07/01 14:28:04;;;;;;;2.80;1.20;;;25.30;54.20;;;;;;9177250;19;20026;-68
2022/07/01 14:31:09;;;;;;;6.70;0.90;;;25.30;54.20;;;;;;9178108;19;20078;-68
2022/07/01 14:34:23;;;;;;;4.78;0.80;;;25.20;54.00;;;;;;9173699;19;20367;-69
2022/07/01 14:37:31;;;;;;;6.00;0.85;;;25.30;54.60;;;;;;9176213;19;20015;-69
2022/07/01 14:40:41;;;;;;;4.97;0.57;;;25.20;53.70;;;;;;9177801;19;20355;-69
2022/07/01 14:43:47;;;;;;;4.53;1.40;;;25.30;53.80;;;;;;9175363;19;20452;-72
2022/07/01 14:46:54;;;;;;;2.00;0.65;;;25.30;53.70;;;;;;9178049;19;20021;-68
2022/07/01 14:50:00;;;;;;;2.22;0.88;;;25.30;53.60;;;;;;9176537;19;20029;-70
2022/07/01 14:53:08;;;;;;;2.17;0.65;;;25.30;53.30;;;;;;9175247;19;20022;-70
2022/07/01 14:56:13;;;;;;;2.00;0.80;;;25.30;53.20;;;;;;9174605;19;20022;-70
2022/07/01 14:59:18;;;;;;;2.97;1.00;;;25.30;53.10;;;;;;9174712;19;20011;-71
2022/07/01 15:02:23;;;;;;;4.93;0.73;;;25.30;53.10;;;;;;9175353;19;20022;-72
2022/07/01 15:05:28;;;;;;;2.63;0.80;;;25.30;52.90;;;;;;9173306;19;20041;-70
2022/07/01 15:08:37;;;;;;;1.65;0.50;;;25.30;52.80;;;;;;9174122;19;20018;-68
2022/07/01 15:11:42;;;;;;;1.52;0.77;;;25.30;52.60;;;;;;9172144;19;20023;-69
2022/07/01 15:14:47;;;;;;;5.03;0.80;;;25.30;52.70;;;;;;9168753;19;20026;-72
2022/07/01 15:17:52;;;;;;;2.20;0.80;;;25.20;52.50;;;;;;9168432;19;20018;-70
2022/07/01 15:20:58;;;;;;;5.25;0.52;;;25.10;52.40;;;;;;9169983;19;20006;-71
2022/07/01 15:24:06;;;;;;;5.15;1.10;;;25.10;52.40;;;;;;9164654;19;20025;-69
2022/07/01 15:27:12;;;;;;;1.92;0.70;;;25.00;52.30;;;;;;9166248;19;20491;-72
2022/07/01 15:30:19;;;;;;;4.72;1.20;;;24.90;52.40;;;;;;9165605;19;20022;-70
2022/07/01 15:33:24;;;;;;;2.83;0.80;;;24.80;52.30;;;;;;9163536;19;20022;-68
2022/07/01 15:36:32;;;;;;;3.70;0.70;;;24.70;52.50;;;;;;9164552;19;20126;-68
2022/07/01 15:39:42;;;;;;;3.20;1.13;;;24.70;53.10;;;;;;9166768;19;20025;-69
2022/07/01 15:42:47;;;;;;;2.25;0.85;;;24.60;52.40;;;;;;9168813;19;20022;-71
2022/07/01 15:45:52;;;;;;;2.70;0.80;;;24.50;52.60;;;;;;9173578;19;20021;-71
2022/07/01 15:49:01;;;;;;;5.13;1.10;;;24.50;52.60;;;;;;9178859;19;20018;-71
2022/07/01 15:52:07;;;;;;;6.18;1.10;;;24.40;52.60;;;;;;9180138;19;20079;-70
2022/07/01 15:55:19;;;;;;;3.55;1.10;;;24.30;52.60;;;;;;9180393;19;20030;-70
2022/07/01 15:58:39;;;;;;;3.70;1.63;;;24.20;52.50;;;;;;9178713;19;20014;-69
2022/07/01 16:01:46;;;;;;;5.68;1.17;;;24.20;52.60;;;;;;9181642;19;20026;-73
2022/07/01 16:04:55;;;;;;;8.30;1.02;;;24.00;52.70;;;;;;9177834;19;20017;-70
2022/07/01 16:08:02;;;;;;;10.73;1.00;;;24.00;52.80;;;;;;9181263;19;20149;-68
2022/07/01 16:11:12;;;;;;;2.50;1.08;;;23.90;52.80;;;;;;9177981;19;20082;-66